Time;durP1;ratioP1;P1;durP2;ratioP2;P2;SDS_P1;SDS_P2;PMS_P1;PMS_P2;Temp;Humidity;BMP_temperature;BMP_pressure;BME280_temperature;BME280_humidity;BME280_pressure;Samples;Min_cycle;Max_cycle;Signal;HPM_P1;HPM_P2
2021/12/30 00:01:28;;;;;;;0.50;0.50;;;8.80;99.90;;;;;;5114074;28;20483;-86
2021/12/30 00:03:54;;;;;;;0.63;0.63;;;8.70;99.90;;;;;;5113106;28;20118;-84
2021/12/30 00:06:22;;;;;;;1.05;1.05;;;8.70;99.90;;;;;;5114120;28;20131;-84
2021/12/30 00:08:50;;;;;;;0.40;0.40;;;8.80;99.90;;;;;;5114631;28;20044;-83
2021/12/30 00:11:15;;;;;;;0.40;0.40;;;8.70;99.90;;;;;;5114278;28;20036;-85
2021/12/30 00:13:45;;;;;;;2.10;1.90;;;8.70;99.90;;;;;;5113213;28;20441;-85
2021/12/30 00:16:15;;;;;;;0.60;0.60;;;8.60;99.90;;;;;;5114136;28;20093;-85
2021/12/30 00:18:41;;;;;;;0.43;0.43;;;8.60;99.90;;;;;;5113150;28;20044;-84
2021/12/30 00:21:07;;;;;;;13.85;2.97;;;8.50;99.90;;;;;;5114701;28;20040;-83
2021/12/30 00:23:33;;;;;;;0.40;0.40;;;8.50;99.90;;;;;;5113024;28;20066;-85
2021/12/30 00:25:59;;;;;;;0.50;0.50;;;8.50;99.90;;;;;;5113173;28;20471;-84
2021/12/30 00:28:26;;;;;;;0.50;0.50;;;8.50;99.90;;;;;;5114069;28;20164;-85
2021/12/30 00:30:52;;;;;;;0.50;0.50;;;8.40;99.90;;;;;;5113979;28;20040;-84
2021/12/30 00:33:18;;;;;;;0.50;0.50;;;8.40;99.90;;;;;;5113927;28;20047;-85
2021/12/30 00:35:44;;;;;;;0.50;0.50;;;8.30;99.90;;;;;;5116831;28;20066;-85
2021/12/30 00:38:10;;;;;;;0.50;0.50;;;8.40;99.90;;;;;;5116789;28;20481;-84
2021/12/30 00:40:37;;;;;;;1.10;0.73;;;8.30;99.90;;;;;;5117946;28;20406;-84
2021/12/30 00:43:03;;;;;;;;;;;8.20;99.90;;;;;;5118749;28;20486;-83
2021/12/30 00:45:30;;;;;;;0.50;0.50;;;8.20;99.90;;;;;;5116574;28;19965;-84
2021/12/30 00:47:56;;;;;;;0.40;0.40;;;8.10;99.90;;;;;;5117683;28;20075;-84
2021/12/30 00:50:24;;;;;;;0.73;0.73;;;8.10;99.90;;;;;;5117929;28;20502;-84
2021/12/30 00:52:49;;;;;;;0.40;0.40;;;8.00;99.90;;;;;;5117007;28;20048;-85
2021/12/30 00:55:15;;;;;;;3.17;2.05;;;8.00;99.90;;;;;;5151076;27;20122;-84
2021/12/30 00:57:42;;;;;;;0.40;0.40;;;8.00;99.90;;;;;;5151155;27;20047;-86
2021/12/30 01:00:12;;;;;;;0.50;0.50;;;7.90;99.90;;;;;;5150716;27;20044;-83
2021/12/30 01:02:38;;;;;;;0.50;0.50;;;7.90;99.90;;;;;;5116406;28;20127;-84
2021/12/30 01:05:04;;;;;;;0.50;0.50;;;7.90;99.90;;;;;;5117461;28;20048;-84
2021/12/30 01:07:30;;;;;;;0.50;0.50;;;7.80;99.90;;;;;;5116477;28;20043;-85
2021/12/30 01:09:56;;;;;;;0.50;0.50;;;7.80;99.90;;;;;;5116847;28;20092;-85
2021/12/30 01:12:22;;;;;;;0.47;0.47;;;8.60;99.90;;;;;;5117395;28;20543;-83
2021/12/30 01:14:48;;;;;;;0.47;0.47;;;7.80;99.90;;;;;;5116110;28;20036;-85
2021/12/30 01:17:25;;;;;;;0.60;0.60;;;7.70;99.90;;;;;;5117230;28;20392;-85
2021/12/30 01:19:51;;;;;;;0.40;0.40;;;7.70;99.90;;;;;;5116518;28;20051;-84
2021/12/30 01:22:21;;;;;;;0.50;0.50;;;7.70;99.90;;;;;;5116952;28;20044;-84
2021/12/30 01:24:47;;;;;;;21.48;1.85;;;7.70;99.90;;;;;;5116480;28;20044;-86
2021/12/30 01:27:13;;;;;;;0.50;0.50;;;7.70;99.90;;;;;;5117123;28;20035;-83
2021/12/30 01:29:40;;;;;;;0.60;0.60;;;7.60;99.90;;;;;;5116977;28;20085;-83
2021/12/30 01:32:06;;;;;;;31.90;1.58;;;7.60;99.90;;;;;;5116597;28;20082;-84
2021/12/30 01:34:33;;;;;;;0.52;0.52;;;7.50;99.90;;;;;;5117502;28;20036;-83
2021/12/30 01:37:01;;;;;;;0.50;0.50;;;7.50;99.90;;;;;;5115497;28;20480;-83
2021/12/30 01:39:27;;;;;;;0.60;0.60;;;7.50;99.90;;;;;;5117115;28;20430;-85
2021/12/30 01:41:53;;;;;;;0.50;0.50;;;7.50;99.90;;;;;;5116704;28;20055;-85
2021/12/30 01:44:19;;;;;;;0.50;0.50;;;7.50;99.90;;;;;;5116625;28;20487;-85
2021/12/30 01:46:45;;;;;;;0.65;0.65;;;7.40;99.90;;;;;;5115936;28;20437;-83
2021/12/30 01:49:13;;;;;;;0.50;0.50;;;7.40;99.90;;;;;;5115437;28;20044;-84
2021/12/30 01:51:41;;;;;;;0.50;0.50;;;7.40;99.90;;;;;;5116533;28;20040;-86
2021/12/30 01:54:07;;;;;;;0.50;0.50;;;7.40;99.90;;;;;;5118701;28;20048;-84
2021/12/30 01:56:33;;;;;;;0.50;0.50;;;7.40;99.90;;;;;;5117651;28;20081;-83
2021/12/30 01:58:59;;;;;;;0.50;0.50;;;7.40;99.90;;;;;;5116445;28;20490;-84
2021/12/30 02:01:25;;;;;;;1.35;1.25;;;7.40;99.90;;;;;;5149927;27;20047;-85
2021/12/30 02:03:51;;;;;;;0.70;0.70;;;7.40;99.90;;;;;;5116363;28;20051;-84
2021/12/30 02:06:17;;;;;;;1.40;1.30;;;7.40;99.90;;;;;;5115125;28;20042;-84
2021/12/30 02:08:43;;;;;;;0.50;0.50;;;7.30;99.90;;;;;;5116353;28;20130;-85
2021/12/30 02:11:09;;;;;;;0.73;0.73;;;7.30;99.90;;;;;;5116020;28;20040;-84
2021/12/30 02:13:34;;;;;;;3.67;3.40;;;7.30;99.90;;;;;;5116145;28;20085;-85
2021/12/30 02:16:02;;;;;;;0.50;0.50;;;7.40;99.90;;;;;;5116369;28;20043;-86
2021/12/30 02:18:29;;;;;;;0.82;0.82;;;7.40;99.90;;;;;;5116152;28;20051;-84
2021/12/30 02:20:57;;;;;;;0.50;0.50;;;7.40;99.90;;;;;;5115957;28;20047;-82
2021/12/30 02:23:26;;;;;;;0.50;0.50;;;7.40;99.90;;;;;;5115928;28;20383;-82
2021/12/30 02:25:54;;;;;;;0.50;0.50;;;7.50;99.90;;;;;;5115031;28;20460;-85
2021/12/30 02:28:25;;;;;;;0.40;0.40;;;7.50;99.90;;;;;;5115038;28;20054;-84
2021/12/30 02:30:53;;;;;;;8.50;0.95;;;7.60;99.90;;;;;;5116373;28;20130;-84
2021/12/30 02:33:19;;;;;;;1.75;1.08;;;7.60;99.90;;;;;;5115302;28;20069;-84
2021/12/30 02:35:44;;;;;;;0.50;0.50;;;7.70;99.90;;;;;;5115681;28;20043;-83
2021/12/30 02:38:11;;;;;;;0.50;0.50;;;7.80;99.90;;;;;;5115754;28;20043;-84
2021/12/30 02:40:44;;;;;;;0.50;0.50;;;7.80;99.90;;;;;;5115819;28;20475;-86
2021/12/30 02:43:23;;;;;;;0.50;0.50;;;7.90;99.90;;;;;;5115574;28;20040;-83
2021/12/30 02:45:48;;;;;;;0.88;0.75;;;8.00;99.90;;;;;;5115892;28;20055;-83
2021/12/30 02:48:26;;;;;;;3.35;0.75;;;8.00;99.90;;;;;;5115952;28;20431;-83
2021/12/30 02:50:55;;;;;;;0.50;0.50;;;8.10;99.90;;;;;;5114669;28;20153;-86
2021/12/30 02:53:21;;;;;;;0.60;0.60;;;8.20;99.90;;;;;;5113909;28;20051;-85
2021/12/30 02:55:47;;;;;;;0.57;0.57;;;8.30;99.90;;;;;;5115366;27;20040;-84
2021/12/30 02:58:14;;;;;;;0.90;0.90;;;8.30;99.90;;;;;;5115226;28;20429;-86
2021/12/30 03:00:42;;;;;;;1.58;0.70;;;8.40;99.90;;;;;;5115657;28;20070;-83
2021/12/30 03:03:19;;;;;;;1.65;1.40;;;8.40;99.90;;;;;;5114401;28;20444;-83
2021/12/30 03:05:45;;;;;;;1.53;1.43;;;8.50;99.90;;;;;;5115300;28;20096;-83
2021/12/30 03:08:11;;;;;;;0.63;0.63;;;8.50;99.90;;;;;;5114307;28;20063;-85
2021/12/30 03:10:37;;;;;;;0.40;0.40;;;8.50;99.90;;;;;;5115098;28;20043;-84
2021/12/30 03:13:10;;;;;;;0.50;0.50;;;8.60;99.90;;;;;;5115111;28;20043;-84
2021/12/30 03:15:37;;;;;;;0.70;0.70;;;8.60;99.90;;;;;;5114903;28;20100;-86
2021/12/30 03:18:03;;;;;;;0.80;0.80;;;8.70;99.90;;;;;;5115208;28;20438;-84
2021/12/30 03:20:35;;;;;;;1.95;1.25;;;8.70;99.90;;;;;;5114946;28;20047;-86
2021/12/30 03:23:01;;;;;;;3.50;1.50;;;8.70;99.90;;;;;;5114964;28;20046;-86
2021/12/30 03:25:27;;;;;;;0.80;0.80;;;8.70;99.90;;;;;;5114903;28;20043;-84
2021/12/30 03:27:53;;;;;;;0.73;0.73;;;8.80;99.90;;;;;;5114733;28;20040;-86
2021/12/30 03:30:18;;;;;;;0.50;0.50;;;8.80;99.90;;;;;;5114758;27;20085;-85
2021/12/30 03:32:44;;;;;;;0.77;0.70;;;8.90;99.90;;;;;;5114653;28;20100;-83
2021/12/30 03:35:12;;;;;;;0.73;0.70;;;8.90;99.90;;;;;;5114214;28;20044;-83
2021/12/30 03:37:38;;;;;;;1.33;1.30;;;8.90;99.90;;;;;;5114579;28;20039;-84
2021/12/30 03:40:07;;;;;;;2.05;1.70;;;8.90;99.90;;;;;;5114153;28;20140;-84
2021/12/30 03:42:33;;;;;;;0.57;0.57;;;8.90;99.90;;;;;;5114680;28;20042;-85
2021/12/30 03:45:00;;;;;;;2.10;0.95;;;9.00;99.90;;;;;;5114411;28;20442;-84
2021/12/30 03:47:26;;;;;;;;;;;9.00;99.90;;;;;;5148509;27;20073;-85
2021/12/30 03:49:52;;;;;;;0.47;0.47;;;9.00;99.90;;;;;;5114494;28;20017;-85
2021/12/30 03:52:27;;;;;;;2.17;1.48;;;9.00;99.90;;;;;;5114182;28;20047;-86
2021/12/30 03:54:53;;;;;;;0.88;0.88;;;9.00;99.90;;;;;;5114448;28;20043;-85
2021/12/30 03:57:19;;;;;;;0.60;0.60;;;9.10;99.90;;;;;;5114603;28;20093;-85
2021/12/30 03:59:45;;;;;;;1.33;1.23;;;9.10;99.90;;;;;;5113998;28;20453;-86
2021/12/30 04:02:10;;;;;;;0.50;0.50;;;9.10;99.90;;;;;;5147792;27;20051;-84
2021/12/30 04:04:36;;;;;;;0.68;0.68;;;9.10;99.90;;;;;;5113998;28;20032;-85
2021/12/30 04:07:02;;;;;;;0.68;0.68;;;9.10;99.90;;;;;;5114066;28;20093;-85
2021/12/30 04:09:28;;;;;;;0.50;0.50;;;9.20;99.90;;;;;;5116493;28;20058;-86
2021/12/30 04:11:53;;;;;;;2.87;0.80;;;9.20;99.90;;;;;;5120164;28;20130;-84
2021/12/30 04:14:19;;;;;;;0.67;0.67;;;9.30;99.90;;;;;;5154406;27;20440;-85
2021/12/30 04:16:46;;;;;;;0.93;0.93;;;9.20;99.90;;;;;;5154280;27;20079;-83
2021/12/30 04:19:12;;;;;;;;;;;9.20;99.90;;;;;;5154844;27;20437;-84
2021/12/30 04:21:37;;;;;;;0.80;0.80;;;9.20;99.90;;;;;;5120883;28;19923;-84
2021/12/30 04:24:03;;;;;;;0.50;0.50;;;9.20;99.90;;;;;;5121332;28;20050;-85
2021/12/30 04:26:29;;;;;;;1.75;1.38;;;9.20;99.90;;;;;;5120814;28;20051;-86
2021/12/30 04:28:56;;;;;;;0.70;0.70;;;9.20;99.90;;;;;;5119867;28;20399;-85
2021/12/30 04:31:22;;;;;;;0.73;0.73;;;;;;;;;;5120812;27;20058;-84
2021/12/30 04:33:48;;;;;;;0.50;0.50;;;9.20;99.90;;;;;;5120783;28;20040;-84
2021/12/30 04:36:14;;;;;;;0.75;0.75;;;9.20;99.90;;;;;;5120799;27;20043;-85
2021/12/30 04:38:40;;;;;;;0.55;0.55;;;9.20;99.90;;;;;;5120845;28;20083;-84
2021/12/30 04:41:06;;;;;;;0.60;0.60;;;9.30;99.90;;;;;;5119820;28;20040;-85
2021/12/30 04:43:32;;;;;;;0.63;0.63;;;9.30;99.90;;;;;;5154323;27;20418;-84
2021/12/30 04:46:00;;;;;;;0.40;0.40;;;9.30;99.90;;;;;;5155619;27;20044;-85
2021/12/30 04:48:26;;;;;;;0.50;0.50;;;9.30;99.90;;;;;;5120371;28;20104;-83
2021/12/30 04:50:53;;;;;;;1.08;0.98;;;9.40;99.90;;;;;;5119901;28;20054;-85
2021/12/30 04:53:19;;;;;;;0.68;0.68;;;9.40;99.90;;;;;;5120489;27;20048;-85
2021/12/30 04:55:45;;;;;;;3.23;2.10;;;9.40;99.90;;;;;;5119832;28;20078;-83
2021/12/30 04:58:12;;;;;;;0.50;0.50;;;9.40;99.90;;;;;;5119697;28;20277;-84
2021/12/30 05:00:37;;;;;;;;;;;9.50;99.90;;;;;;5121132;27;20485;-83
2021/12/30 05:03:11;;;;;;;1.05;1.05;;;10.10;99.90;;;;;;5120459;28;20010;-84
2021/12/30 05:05:45;;;;;;;0.40;0.40;;;9.50;99.90;;;;;;5120727;27;20078;-85
2021/12/30 05:08:12;;;;;;;0.68;0.68;;;9.60;99.90;;;;;;5120521;28;20488;-85
2021/12/30 05:10:39;;;;;;;0.50;0.50;;;9.60;99.90;;;;;;5120545;27;20036;-84
2021/12/30 05:13:05;;;;;;;0.50;0.50;;;9.60;99.90;;;;;;5120724;27;20091;-84
2021/12/30 05:15:32;;;;;;;0.70;0.70;;;9.70;99.90;;;;;;5120254;27;20675;-84
2021/12/30 05:17:57;;;;;;;1.33;1.02;;;9.70;99.90;;;;;;5120641;27;20052;-86
2021/12/30 05:20:23;;;;;;;0.80;0.80;;;9.70;99.90;;;;;;5118846;28;20130;-86
2021/12/30 05:22:49;;;;;;;0.88;0.88;;;9.70;99.90;;;;;;5116329;28;20040;-86
2021/12/30 05:25:16;;;;;;;0.87;0.70;;;9.70;99.90;;;;;;5117292;28;20466;-85
2021/12/30 05:27:42;;;;;;;;;;;9.90;99.90;;;;;;5117749;28;20128;-85
2021/12/30 05:30:09;;;;;;;0.80;0.80;;;9.70;99.90;;;;;;5116996;28;19919;-84
2021/12/30 05:32:36;;;;;;;0.47;0.47;;;9.70;99.90;;;;;;5117535;28;20054;-84
2021/12/30 05:35:06;;;;;;;1.02;0.65;;;9.70;99.90;;;;;;5117160;28;20097;-84
2021/12/30 05:37:32;;;;;;;7.88;0.70;;;9.80;99.90;;;;;;5117470;28;20042;-85
2021/12/30 05:39:58;;;;;;;0.70;0.70;;;9.80;99.90;;;;;;5117113;28;20036;-83
2021/12/30 05:42:23;;;;;;;0.88;0.88;;;9.80;99.90;;;;;;5116539;28;20384;-84
2021/12/30 05:44:58;;;;;;;1.20;1.05;;;9.90;99.90;;;;;;5116822;28;20126;-83
2021/12/30 05:47:24;;;;;;;1.35;0.98;;;9.90;99.90;;;;;;5115772;28;20047;-84
2021/12/30 05:49:49;;;;;;;0.87;0.87;;;10.00;99.90;;;;;;5116747;28;20051;-79
2021/12/30 05:52:15;;;;;;;1.07;1.03;;;10.00;99.90;;;;;;5116553;28;20060;-80
2021/12/30 05:54:42;;;;;;;1.35;1.25;;;10.00;99.90;;;;;;5149981;27;20035;-80
2021/12/30 05:57:10;;;;;;;0.50;0.50;;;10.00;99.90;;;;;;5116242;28;20495;-79
2021/12/30 05:59:36;;;;;;;0.70;0.70;;;10.00;99.90;;;;;;5116301;28;20529;-80
2021/12/30 06:02:03;;;;;;;0.50;0.50;;;10.10;99.90;;;;;;5116530;28;20059;-80
2021/12/30 06:04:28;;;;;;;0.98;0.95;;;10.10;99.90;;;;;;5116420;28;20040;-82
2021/12/30 06:06:54;;;;;;;1.48;1.15;;;10.10;99.90;;;;;;5116417;28;20411;-82
2021/12/30 06:09:25;;;;;;;0.50;0.50;;;10.20;99.90;;;;;;5116344;28;20069;-81
2021/12/30 06:11:51;;;;;;;1.40;1.08;;;10.20;99.90;;;;;;5116634;28;20043;-82
2021/12/30 06:14:17;;;;;;;0.95;0.95;;;10.20;99.90;;;;;;5116262;28;20082;-81
2021/12/30 06:16:42;;;;;;;0.65;0.50;;;10.30;99.90;;;;;;5116229;28;20075;-80
2021/12/30 06:19:08;;;;;;;1.13;0.77;;;10.30;99.90;;;;;;5116261;28;20052;-80
2021/12/30 06:21:34;;;;;;;0.77;0.77;;;10.30;99.90;;;;;;5116242;28;20082;-81
2021/12/30 06:23:59;;;;;;;0.50;0.50;;;10.40;99.90;;;;;;5116003;28;20031;-82
2021/12/30 06:26:25;;;;;;;0.40;0.40;;;10.40;99.90;;;;;;5116209;28;20047;-83
2021/12/30 06:28:50;;;;;;;0.50;0.50;;;10.40;99.90;;;;;;5115938;28;20043;-84
2021/12/30 06:31:16;;;;;;;0.50;0.50;;;10.50;99.90;;;;;;5115890;28;20057;-82
2021/12/30 06:33:42;;;;;;;2.55;1.02;;;10.60;99.90;;;;;;5115612;28;20119;-82
2021/12/30 06:36:08;;;;;;;0.60;0.60;;;10.60;99.90;;;;;;5116070;28;20486;-81
2021/12/30 06:38:34;;;;;;;0.93;0.93;;;10.60;99.90;;;;;;5115828;28;20058;-82
2021/12/30 06:41:00;;;;;;;0.63;0.63;;;10.60;99.90;;;;;;5115778;28;20044;-81
2021/12/30 06:43:26;;;;;;;1.38;1.00;;;10.60;99.90;;;;;;5115604;28;20043;-82
2021/12/30 06:45:51;;;;;;;0.77;0.77;;;10.60;99.90;;;;;;5115996;28;20043;-84
2021/12/30 06:48:17;;;;;;;1.10;1.00;;;10.70;99.90;;;;;;5114915;28;20047;-81
2021/12/30 06:50:51;;;;;;;0.63;0.63;;;10.70;99.90;;;;;;5115646;28;20089;-82
2021/12/30 06:53:18;;;;;;;1.48;0.95;;;10.70;99.90;;;;;;5115320;28;20059;-82
2021/12/30 06:55:45;;;;;;;1.45;1.25;;;10.70;99.90;;;;;;5115736;28;20475;-84
2021/12/30 06:58:11;;;;;;;0.55;0.55;;;10.70;99.90;;;;;;5115524;28;20050;-85
2021/12/30 07:00:36;;;;;;;0.60;0.60;;;10.80;99.90;;;;;;5115850;28;20043;-83
2021/12/30 07:03:02;;;;;;;1.65;1.02;;;10.80;99.90;;;;;;5115123;28;20099;-81
2021/12/30 07:05:28;;;;;;;2.93;1.40;;;10.80;99.90;;;;;;5115460;28;20082;-83
2021/12/30 07:07:53;;;;;;;0.60;0.60;;;10.80;99.90;;;;;;5114873;28;20047;-83
2021/12/30 07:10:19;;;;;;;0.63;0.63;;;10.90;99.90;;;;;;5115025;28;20044;-79
2021/12/30 07:12:45;;;;;;;0.73;0.73;;;10.90;99.90;;;;;;5115116;28;20082;-84
2021/12/30 07:15:10;;;;;;;0.60;0.60;;;10.90;99.90;;;;;;5115039;28;20043;-85
2021/12/30 07:17:36;;;;;;;3.20;0.93;;;10.90;99.90;;;;;;5114223;28;20071;-83
2021/12/30 07:20:03;;;;;;;1.45;1.20;;;10.90;99.90;;;;;;5114155;28;20074;-83
2021/12/30 07:22:29;;;;;;;1.48;0.85;;;11.00;99.90;;;;;;5114362;28;20035;-82
2021/12/30 07:24:56;;;;;;;0.97;0.97;;;11.00;99.90;;;;;;5114105;28;20164;-79
2021/12/30 07:27:22;;;;;;;1.38;1.27;;;11.00;99.90;;;;;;5114316;27;20445;-85
2021/12/30 07:29:47;;;;;;;0.82;0.82;;;11.00;99.90;;;;;;5095120;28;20123;-83
2021/12/30 07:32:13;;;;;;;0.68;0.68;;;11.00;99.90;;;;;;5113333;28;20124;-83
2021/12/30 07:34:38;;;;;;;0.50;0.50;;;11.00;99.90;;;;;;5114412;28;20385;-84
2021/12/30 07:37:07;;;;;;;0.65;0.60;;;11.10;99.90;;;;;;5114316;28;20487;-83
2021/12/30 07:39:33;;;;;;;1.10;0.70;;;11.00;99.90;;;;;;5114316;28;20039;-84
2021/12/30 07:41:58;;;;;;;0.40;0.40;;;11.10;99.90;;;;;;5087191;28;20043;-83
2021/12/30 07:44:24;;;;;;;0.93;0.83;;;11.10;99.90;;;;;;5112952;28;20071;-82
2021/12/30 07:46:50;;;;;;;0.80;0.70;;;11.10;99.90;;;;;;5113968;28;20485;-84
2021/12/30 07:49:15;;;;;;;0.95;0.95;;;11.10;99.90;;;;;;5115174;28;20043;-84
2021/12/30 07:51:41;;;;;;;0.60;0.60;;;11.20;99.90;;;;;;5114486;28;20394;-85
2021/12/30 07:54:06;;;;;;;0.70;0.70;;;11.70;99.90;;;;;;5114224;28;20403;-81
2021/12/30 07:56:32;;;;;;;0.82;0.82;;;11.20;99.90;;;;;;5114315;28;20109;-83
2021/12/30 07:58:58;;;;;;;0.60;0.60;;;11.20;99.90;;;;;;5114546;28;20050;-85
2021/12/30 08:01:24;;;;;;;0.53;0.53;;;11.10;99.90;;;;;;5114121;28;20096;-82
2021/12/30 08:03:49;;;;;;;0.30;0.30;;;11.20;99.90;;;;;;5114590;28;20534;-80
2021/12/30 08:06:15;;;;;;;0.47;0.47;;;11.20;99.90;;;;;;5114519;28;20153;-83
2021/12/30 08:08:41;;;;;;;0.63;0.63;;;11.10;99.90;;;;;;5114535;28;20131;-83
2021/12/30 08:11:06;;;;;;;0.40;0.40;;;11.10;99.90;;;;;;5113031;28;20039;-81
2021/12/30 08:13:32;;;;;;;0.40;0.40;;;11.10;99.90;;;;;;5114163;28;20507;-82
2021/12/30 08:15:58;;;;;;;0.50;0.50;;;11.20;99.90;;;;;;5114007;28;20048;-78
2021/12/30 08:18:23;;;;;;;0.50;0.50;;;11.20;99.90;;;;;;5114559;28;20047;-75
2021/12/30 08:20:49;;;;;;;0.50;0.50;;;11.20;99.90;;;;;;5114437;28;20069;-76
2021/12/30 08:23:14;;;;;;;0.40;0.40;;;11.20;99.90;;;;;;5119554;28;20108;-84
2021/12/30 08:25:40;;;;;;;0.40;0.40;;;11.20;99.90;;;;;;5120144;28;20047;-85
2021/12/30 08:28:07;;;;;;;0.40;0.40;;;11.20;99.90;;;;;;5113480;28;20046;-79
2021/12/30 08:30:33;;;;;;;0.40;0.40;;;11.30;99.90;;;;;;5114163;28;20126;-80
2021/12/30 08:32:59;;;;;;;0.83;0.60;;;11.30;99.90;;;;;;5114140;28;20127;-80
2021/12/30 08:35:25;;;;;;;0.40;0.40;;;11.30;99.90;;;;;;5113425;28;20383;-80
2021/12/30 08:37:54;;;;;;;0.40;0.40;;;11.30;99.90;;;;;;5113962;28;20457;-81
2021/12/30 08:40:20;;;;;;;0.40;0.40;;;11.30;99.90;;;;;;5113976;28;20051;-80
2021/12/30 08:42:46;;;;;;;2.33;0.60;;;11.30;99.90;;;;;;5113827;28;20051;-79
2021/12/30 08:45:12;;;;;;;0.40;0.40;;;11.30;99.90;;;;;;5113550;28;20487;-80
2021/12/30 08:47:38;;;;;;;0.40;0.40;;;11.30;99.90;;;;;;5114075;28;20456;-80
2021/12/30 08:50:07;;;;;;;0.40;0.40;;;11.40;99.90;;;;;;5113975;28;20047;-80
2021/12/30 08:52:33;;;;;;;0.40;0.40;;;11.40;99.90;;;;;;5114157;28;20079;-80
2021/12/30 08:55:00;;;;;;;0.80;0.80;;;11.40;99.90;;;;;;5113773;28;20468;-80
2021/12/30 08:57:25;;;;;;;;;;;11.40;99.90;;;;;;5117020;28;20054;-80
2021/12/30 08:59:52;;;;;;;0.70;0.70;;;11.50;99.90;;;;;;5117973;28;20283;-80
2021/12/30 09:02:18;;;;;;;0.40;0.40;;;11.50;99.90;;;;;;5117316;28;20479;-80
2021/12/30 09:04:46;;;;;;;1.27;0.80;;;12.50;99.90;;;;;;5117430;28;20038;-80
2021/12/30 09:07:12;;;;;;;1.67;1.58;;;11.60;99.90;;;;;;5117520;28;20087;-80
2021/12/30 09:09:39;;;;;;;1.65;1.38;;;11.60;99.90;;;;;;5117427;28;20043;-81
2021/12/30 09:12:05;;;;;;;0.68;0.68;;;11.70;99.90;;;;;;5117076;28;20074;-80
2021/12/30 09:14:31;;;;;;;0.47;0.47;;;11.70;99.90;;;;;;5117227;28;20046;-80
2021/12/30 09:16:56;;;;;;;0.80;0.80;;;11.70;99.90;;;;;;5117630;28;20122;-80
2021/12/30 09:19:22;;;;;;;0.40;0.40;;;11.80;99.90;;;;;;5117292;28;20529;-80
2021/12/30 09:21:47;;;;;;;0.97;0.93;;;11.80;99.90;;;;;;5116938;28;20555;-80
2021/12/30 09:24:13;;;;;;;1.85;1.55;;;12.40;99.90;;;;;;5115899;28;20032;-81
2021/12/30 09:26:39;;;;;;;1.40;1.00;;;11.80;99.90;;;;;;5116955;28;20498;-81
2021/12/30 09:29:10;;;;;;;0.77;0.77;;;12.30;99.90;;;;;;5116075;28;20352;-79
2021/12/30 09:31:45;;;;;;;0.70;0.68;;;11.80;99.90;;;;;;5117394;28;20044;-81
2021/12/30 09:34:11;;;;;;;1.15;0.75;;;11.80;99.90;;;;;;5116927;28;20092;-79
2021/12/30 09:36:38;;;;;;;0.73;0.65;;;11.90;99.90;;;;;;5116949;28;20043;-80
2021/12/30 09:39:07;;;;;;;0.85;0.85;;;11.90;99.90;;;;;;5115582;28;20044;-80
2021/12/30 09:41:34;;;;;;;1.00;0.85;;;11.90;99.90;;;;;;5116742;28;20047;-80
2021/12/30 09:44:00;;;;;;;1.15;0.93;;;11.90;99.90;;;;;;5115921;27;20039;-82
2021/12/30 09:46:27;;;;;;;0.53;0.53;;;11.90;99.90;;;;;;5115421;28;20130;-80
2021/12/30 09:48:52;;;;;;;1.48;1.00;;;11.90;99.90;;;;;;5114346;28;20039;-81
2021/12/30 09:51:20;;;;;;;0.40;0.40;;;11.90;99.90;;;;;;5116105;28;20108;-82
2021/12/30 09:53:50;;;;;;;0.50;0.50;;;11.90;99.90;;;;;;5115862;28;20051;-81
2021/12/30 09:56:18;;;;;;;0.95;0.70;;;11.90;99.90;;;;;;5116142;28;20135;-81
2021/12/30 09:58:43;;;;;;;4.25;0.82;;;11.90;99.90;;;;;;5115010;28;20410;-81
2021/12/30 10:01:09;;;;;;;0.60;0.60;;;11.90;99.90;;;;;;5116158;28;20089;-78
2021/12/30 10:03:35;;;;;;;1.23;1.13;;;11.90;99.90;;;;;;5116344;28;20134;-81
2021/12/30 10:06:11;;;;;;;0.60;0.60;;;11.90;99.90;;;;;;5116250;28;20559;-76
2021/12/30 10:08:41;;;;;;;0.57;0.57;;;11.90;99.90;;;;;;5113702;28;20050;-78
2021/12/30 10:11:14;;;;;;;0.50;0.50;;;11.90;99.90;;;;;;5113143;28;20518;-76
2021/12/30 10:13:50;;;;;;;0.90;0.68;;;11.90;99.90;;;;;;5116066;28;20445;-81
2021/12/30 10:16:16;;;;;;;0.52;0.52;;;11.90;99.90;;;;;;5116331;28;20047;-80
2021/12/30 10:19:00;;;;;;;0.97;0.97;;;11.90;99.90;;;;;;5115440;28;20035;-80
2021/12/30 10:21:27;;;;;;;0.57;0.57;;;12.00;99.90;;;;;;5112658;28;20091;-82
2021/12/30 10:23:55;;;;;;;0.50;0.50;;;12.00;99.90;;;;;;5115157;28;20460;-76
2021/12/30 10:26:21;;;;;;;0.77;0.77;;;12.00;99.90;;;;;;5116248;28;20122;-78
2021/12/30 10:28:54;;;;;;;1.00;0.90;;;12.00;99.90;;;;;;5113109;28;20057;-78
2021/12/30 10:31:23;;;;;;;0.95;0.95;;;12.00;99.90;;;;;;5115746;28;20054;-77
2021/12/30 10:33:53;;;;;;;0.93;0.85;;;12.00;99.90;;;;;;5116266;28;20040;-77
2021/12/30 10:36:21;;;;;;;0.50;0.50;;;12.10;99.90;;;;;;5115980;28;20044;-75
2021/12/30 10:38:47;;;;;;;0.52;0.52;;;12.10;99.90;;;;;;5115869;28;20047;-78
2021/12/30 10:41:13;;;;;;;0.75;0.55;;;12.10;99.90;;;;;;5115715;28;20046;-77
2021/12/30 10:46:16;;;;;;;0.40;0.40;;;12.10;99.90;;;;;;5115395;28;20139;-76
2021/12/30 10:48:55;;;;;;;0.90;0.50;;;12.10;99.90;;;;;;5115557;28;20050;-83
2021/12/30 10:51:21;;;;;;;0.75;0.75;;;12.10;99.90;;;;;;5114622;28;20047;-80
2021/12/30 10:53:48;;;;;;;0.50;0.50;;;12.10;99.90;;;;;;5115536;28;20134;-83
2021/12/30 10:56:33;;;;;;;0.50;0.50;;;12.10;99.90;;;;;;5114342;28;20514;-80
2021/12/30 10:59:11;;;;;;;0.50;0.50;;;12.10;99.90;;;;;;5114852;28;20137;-79
2021/12/30 11:01:42;;;;;;;1.35;1.17;;;12.10;99.90;;;;;;5115264;28;20043;-81
2021/12/30 11:04:08;;;;;;;0.50;0.50;;;12.20;99.90;;;;;;5114143;28;20039;-84
2021/12/30 11:06:34;;;;;;;4.13;1.40;;;12.10;99.90;;;;;;5114338;28;20050;-81
2021/12/30 11:09:14;;;;;;;0.50;0.50;;;12.20;99.90;;;;;;5114152;28;20043;-82
2021/12/30 11:12:00;;;;;;;1.10;0.75;;;12.20;99.90;;;;;;5114262;28;20776;-80
2021/12/30 11:14:31;;;;;;;0.88;0.88;;;12.10;99.90;;;;;;5098024;28;20448;-80
2021/12/30 11:17:05;;;;;;;0.40;0.40;;;12.10;99.90;;;;;;5112214;28;20047;-79
2021/12/30 11:19:35;;;;;;;1.10;0.85;;;12.10;99.90;;;;;;5113023;28;20055;-80
2021/12/30 11:22:03;;;;;;;0.50;0.50;;;12.10;99.90;;;;;;5114839;28;20036;-81
2021/12/30 11:24:31;;;;;;;0.40;0.40;;;12.10;99.90;;;;;;5115106;28;20383;-80
2021/12/30 11:26:57;;;;;;;15.13;1.75;;;12.10;99.90;;;;;;5114789;28;20440;-80
2021/12/30 11:29:23;;;;;;;3.63;2.05;;;12.10;99.90;;;;;;5112810;28;20043;-84
2021/12/30 11:31:51;;;;;;;3.28;1.98;;;12.20;99.90;;;;;;5113990;28;20096;-83
2021/12/30 11:34:20;;;;;;;0.65;0.65;;;12.10;99.90;;;;;;5114203;28;20040;-85
2021/12/30 11:36:46;;;;;;;0.50;0.50;;;12.10;99.90;;;;;;5096114;28;20035;-84
2021/12/30 11:39:15;;;;;;;0.87;0.87;;;12.10;99.90;;;;;;5113257;28;20506;-87
2021/12/30 11:41:45;;;;;;;0.40;0.40;;;12.30;99.90;;;;;;5093543;28;20071;-84
2021/12/30 11:44:40;;;;;;;1.20;1.13;;;12.10;99.90;;;;;;5113000;28;20043;-79
2021/12/30 11:47:09;;;;;;;0.40;0.40;;;12.10;99.90;;;;;;5112115;28;20121;-81
2021/12/30 11:49:58;;;;;;;0.57;0.40;;;12.10;99.90;;;;;;5114120;28;20047;-85
2021/12/30 11:52:46;;;;;;;1.48;0.73;;;12.10;99.90;;;;;;5097116;28;20060;-80
2021/12/30 11:55:43;;;;;;;7.57;1.58;;;12.00;99.90;;;;;;5114052;28;20395;-79
2021/12/30 11:58:32;;;;;;;0.93;0.90;;;12.00;99.90;;;;;;5096668;28;20146;-88
2021/12/30 12:01:13;;;;;;;1.15;1.05;;;12.00;99.90;;;;;;5113663;28;20043;-81
2021/12/30 12:03:44;;;;;;;0.77;0.77;;;12.00;99.90;;;;;;5113878;28;20076;-81
2021/12/30 12:06:25;;;;;;;1.55;1.08;;;12.00;99.90;;;;;;5114442;28;20118;-83
2021/12/30 12:08:52;;;;;;;0.68;0.68;;;12.00;99.90;;;;;;5114458;28;20123;-83
2021/12/30 12:11:41;;;;;;;0.50;0.50;;;12.00;99.90;;;;;;5116465;28;20048;-81
2021/12/30 12:14:32;;;;;;;1.13;0.85;;;12.00;99.90;;;;;;5104369;28;20052;-81
2021/12/30 12:17:02;;;;;;;1.10;1.05;;;12.00;99.90;;;;;;5114188;28;20126;-80
2021/12/30 12:19:33;;;;;;;2.17;2.05;;;12.00;99.90;;;;;;5147555;27;20048;-82
2021/12/30 12:22:01;;;;;;;0.40;0.40;;;12.10;99.90;;;;;;5114220;28;20500;-85
2021/12/30 12:24:36;;;;;;;0.60;0.60;;;12.00;99.90;;;;;;5112464;28;20487;-81
2021/12/30 12:27:08;;;;;;;1.08;0.50;;;12.00;99.90;;;;;;5114493;28;20079;-84
2021/12/30 12:29:49;;;;;;;0.52;0.52;;;12.00;99.90;;;;;;5114055;28;20392;-79
2021/12/30 12:32:38;;;;;;;0.70;0.70;;;12.10;99.90;;;;;;5117992;28;20173;-82
2021/12/30 12:35:26;;;;;;;4.78;1.20;;;12.10;99.90;;;;;;5118213;28;20054;-83
2021/12/30 12:37:56;;;;;;;0.60;0.60;;;12.10;99.90;;;;;;5118516;27;20070;-81
2021/12/30 12:40:35;;;;;;;0.60;0.60;;;12.10;99.90;;;;;;5116859;28;20054;-85
2021/12/30 12:43:10;;;;;;;0.52;0.52;;;12.10;99.90;;;;;;5117686;28;20484;-83
2021/12/30 12:45:49;;;;;;;0.85;0.85;;;12.10;99.90;;;;;;5118017;28;20051;-79
2021/12/30 12:48:17;;;;;;;0.40;0.40;;;12.20;99.90;;;;;;5118400;28;20118;-82
2021/12/30 12:51:00;;;;;;;0.50;0.50;;;12.20;99.90;;;;;;5117241;28;20069;-80
2021/12/30 12:53:28;;;;;;;7.88;0.82;;;12.20;99.90;;;;;;5117912;28;20102;-83
2021/12/30 12:55:58;;;;;;;1.17;1.05;;;12.20;99.90;;;;;;5116495;28;20057;-85
2021/12/30 12:58:26;;;;;;;1.95;0.93;;;12.10;99.90;;;;;;5117013;28;20515;-82
2021/12/30 13:00:55;;;;;;;0.40;0.40;;;12.10;99.90;;;;;;5118244;28;20054;-87